Placita, New Mexico
Current Conditions -  °F | °C
As of 4:55 PM on Monday 20 Oct 2014 (Local Time) from KSKX Reporting Station
Overcast Overcast  
Wind Chill: 17°   Ceiling: 8500
Heat Index: 17°   Visibility: 10mi
Dew Point:   Wind: 16mph
Humidity: 37%   Direction: 340°NNW
Pressure: 30.2"   Gusts: NA
Location:  36.1892°N, 105.688°W
Report Text: KSKX 202255Z AUTO 34014KT 10SM OVC085 17/02 A3020 RMK AO1 WSHFT 27 TSE04 P0001
Loading
Personal Weather Stations






























Interactive Weather Map
Tropical Storm Tracking
New forecast layout! Learn more

10-Day Weather Forecast

Advertisements
Track Severe Weather on mobile